Wellesbourne Mountford, United Kingdom
Current Conditions -  °F | °C
As of 4:20 PM on Thursday 23 Oct 2014 (Local Time) from EGBE Reporting Station
Broken Clouds Broken Clouds  
Wind Chill: 16°   Ceiling: 1800
Heat Index: 16°   Visibility: 6mi
Dew Point: 13°   Wind: 14mph
Humidity: 82%   Direction: 210°SSW
Pressure: 29.97"   Gusts: NA
Location:  52.18°N, 1.58°W
Report Text: EGBE 231520Z 21012KT 9999 BKN018 16/13 Q1015
Loading
Personal Weather Stations






























Interactive Weather Map
Tropical Storm Tracking
New forecast layout! Learn more

10-Day Weather Forecast

Advertisements
Track Severe Weather on mobile